Airfield :
LOGIN :

Register | Disclaimer

   EN    FR    IT 

 










Legend :    VFR   Marginal VFR   IFR   Intensive IFR   Very Intensive IFR
Visi :
Ceiling :
>= 8 km
>= 3000ft
5 to 8 km
1000 to 3000 ft
1500m to 5 km
500 to 1000 ft
800 to 1500m
200 to 500 ft
< 800m
< 200 ft
Symbols :   Thunderstorms  Fog  Heavy snow  Heavy precipitations  Wind > 20 kt
SIGMETs :     Misc.  Thunderstorms  Icing  Turbulence  Mountain Waves  Volcanic Ashes






- Airport Elevation : 203 ft
- IATA code : XMJ


LFBM - Mont-De-Marsan

CURRENT METAR :
  • 291930Z AUTO 10003KT CAVOK 11/08 Q1019 NOSIG

EXPIRED METARs :
  • 291900Z AUTO 08004KT CAVOK 11/08 Q1019 NOSIG
  • 291830Z AUTO 10003KT CAVOK 11/08 Q1019 NOSIG
  • 291800Z AUTO 07004KT CAVOK 11/08 Q1019 NOSIG
  • 291730Z AUTO 08003KT CAVOK 12/08 Q1019 NOSIG
  • 291700Z AUTO 09003KT 020V110 CAVOK 13/08 Q1019 NOSIG

TAF TAF LFBM
Valid from the 29 at 15:00 until the 30 at 15:00 UTC


291400Z 2915/3015 VRB02KT 9999 FEW040 OVC250
BECMG 3000/3002 4000 RA BKN010 BKN025



MET'MAP, your aeronautical weather chart ! - Copyright ORBIFLY December 2007 - Disclaimer

ORBIFLY MET'MAP TEAM :

Programming & Development : Alexandra Zaïnal
Concept & original design : Baudouin d'Aumeries
Assistance for programming : Marc-Olivier Méhu
Technical & hardware support : Manuel Goepfert

Contact : metmap@orbifly.com




SOURCES & CREDITS :

   NOAA